This is the latest recevied weather packets stored in our database for station/object OE-11073. If no packets are shown the sender has not sent any weather packets the latest 10 day(s).
| Time | Temp. | Humidity | Pressure | Rain* | Wind** | Luminosity | Snow |
|---|---|---|---|---|---|---|---|
| 1787994310 | 16.11° C | 74% | - | 0 mm | - | 383 W/m² | - |
| 1787993710 | 16.11° C | 71% | - | 0 mm | - | 497 W/m² | - |
| 1787992882 | 16.67° C | 71% | - | 0 mm | - | 536 W/m² | - |
| 1787992509 | 15.56° C | 74% | - | 0 mm | - | 367 W/m² | - |
| 1787991910 | 16.11° C | 78% | - | 0 mm | - | 360 W/m² | - |
| 1787991083 | 15° C | 77% | - | 0 mm | - | 306 W/m² | - |
| 1787990709 | 15° C | 82% | - | 0 mm | - | 222 W/m² | - |
| 1787990110 | 15° C | 83% | - | 0 mm | - | 176 W/m² | - |
| 1787989282 | 14.44° C | 83% | - | 0 mm | - | 184 W/m² | - |
| 1787988910 | 14.44° C | 85% | - | 0 mm | - | 161 W/m² | - |
| 1787988309 | 14.44° C | 85% | - | 0 mm | - | 107 W/m² | - |
| 1787987483 | 14.44° C | 85% | - | 0 mm | - | 115 W/m² | - |
| 1787987110 | 14.44° C | 86% | - | 0 mm | - | 161 W/m² | - |
| 1787986510 | 14.44° C | 88% | - | 0 mm | - | 153 W/m² | - |
| 1787985683 | 14.44° C | 90% | - | 0 mm | - | 153 W/m² | - |
| 1787985309 | 13.89° C | 88% | - | 0 mm | - | 130 W/m² | - |
| 1787984710 | 13.89° C | 87% | - | 0 mm | - | 122 W/m² | - |
| 1787983883 | 13.33° C | 91% | - | 0 mm | - | 99 W/m² | - |
| 1787982910 | 12.78° C | 92% | - | 0 mm | - | 46 W/m² | - |
| 1787982083 | 12.78° C | 92% | - | 0 mm | - | 46 W/m² | - |
| 1787981710 | 12.78° C | 94% | - | 0 mm | - | 54 W/m² | - |
| 1787981109 | 12.78° C | 93% | - | 0 mm | - | 38 W/m² | - |
| 1787980282 | 12.78° C | 92% | - | 0 mm | - | 31 W/m² | - |
| 1787979909 | 12.78° C | 92% | - | 0 mm | - | 15 W/m² | - |
| 1787979310 | 13.33° C | 92% | - | 0 mm | - | 0 W/m² | - |
* Rain latest hour (hover to see other rain measurements)
** Current wind speed in m/s (hover to see current wind gust speed)